Time;durP1;ratioP1;P1;durP2;ratioP2;P2;SDS_P1;SDS_P2;PMS_P1;PMS_P2;Temp;Humidity;BMP_temperature;BMP_pressure;BME280_temperature;BME280_humidity;BME280_pressure;Samples;Min_cycle;Max_cycle;Signal;HPM_P1;HPM_P2
2021/11/03 00:00:10;;;;;;;7.97;4.10;;;;;;;10.63;82.16;98907.75;5042042;28;20098;-87
2021/11/03 00:02:37;;;;;;;9.75;4.97;;;;;;;10.74;82.33;98905.22;5049318;28;20503;-87
2021/11/03 00:05:04;;;;;;;8.32;4.15;;;;;;;10.74;82.92;98900.00;5034452;28;20463;-88
2021/11/03 00:07:31;;;;;;;11.88;5.10;;;;;;;10.81;82.39;98892.56;5038978;28;20049;-88
2021/11/03 00:10:03;;;;;;;8.85;4.20;;;;;;;10.40;86.76;98884.16;5039170;28;20344;-88
2021/11/03 00:12:31;;;;;;;7.18;3.80;;;;;;;10.33;87.35;98884.69;5047719;28;20117;-88
2021/11/03 00:14:59;;;;;;;9.30;3.35;;;;;;;10.36;86.54;98885.31;5034137;28;20042;-88
2021/11/03 00:17:26;;;;;;;3.67;2.05;;;;;;;10.49;86.33;98874.84;5034601;28;20053;-86
2021/11/03 00:19:53;;;;;;;11.43;2.22;;;;;;;10.26;87.11;98873.88;5033959;28;20049;-87
2021/11/03 00:22:20;;;;;;;2.50;1.45;;;;;;;10.28;87.74;98879.84;5034658;28;20046;-90
2021/11/03 00:24:47;;;;;;;5.70;1.60;;;;;;;10.09;88.93;98888.06;5034163;28;20041;-89
2021/11/03 00:27:14;;;;;;;6.15;1.58;;;;;;;10.27;87.10;98887.72;5033691;28;20476;-89
2021/11/03 00:29:41;;;;;;;5.10;1.70;;;;;;;10.61;84.12;98888.78;5035985;28;20057;-90
2021/11/03 00:32:10;;;;;;;10.50;3.38;;;;;;;10.49;86.12;98891.34;5042649;28;20045;-89
2021/11/03 00:34:37;;;;;;;5.18;2.08;;;;;;;10.46;86.01;98885.50;5062623;28;20037;-90
2021/11/03 00:37:04;;;;;;;3.40;1.70;;;;;;;10.54;86.08;98897.97;5064444;28;20475;-90
2021/11/03 00:39:56;;;;;;;4.32;3.17;;;;;;;10.61;86.55;98907.03;5040111;28;20171;-89
2021/11/03 00:42:23;;;;;;;7.78;3.65;;;;;;;10.67;84.69;98904.81;5031878;28;20096;-87
2021/11/03 00:44:49;;;;;;;6.50;2.10;;;;;;;10.76;82.41;98905.94;5032745;28;20041;-89
2021/11/03 00:47:16;;;;;;;10.25;6.00;;;;;;;10.15;87.55;98907.63;5031678;28;20045;-88
2021/11/03 00:49:43;;;;;;;9.98;6.03;;;;;;;10.09;88.93;98901.06;5033307;28;20077;-89
2021/11/03 00:52:10;;;;;;;17.00;7.70;;;;;;;9.75;91.93;98910.38;5031842;28;20132;-88
2021/11/03 00:54:37;;;;;;;15.82;7.95;;;;;;;9.73;92.48;98911.41;5032174;28;20037;-87
2021/11/03 00:57:04;;;;;;;10.60;7.32;;;;;;;10.06;91.08;98923.88;5032141;28;20045;-88
2021/11/03 00:59:31;;;;;;;11.57;8.95;;;;;;;9.98;92.15;98927.84;5031818;28;20046;-88
2021/11/03 01:01:58;;;;;;;14.50;11.02;;;;;;;10.29;89.84;98930.16;5032152;28;20132;-88
2021/11/03 01:04:25;;;;;;;21.48;13.65;;;;;;;10.27;89.75;98911.16;5031382;28;20037;-87
2021/11/03 01:06:52;;;;;;;21.17;14.13;;;;;;;10.25;90.03;98910.47;5031889;28;20041;-88
2021/11/03 01:09:19;;;;;;;19.88;13.60;;;;;;;10.16;88.05;98914.50;5033034;28;20104;-88
2021/11/03 01:11:49;;;;;;;13.98;11.90;;;;;;;9.88;91.72;98905.16;5033664;28;20063;-88
2021/11/03 01:14:19;;;;;;;14.57;11.70;;;;;;;9.65;93.45;98904.13;5033301;28;20465;-89
2021/11/03 01:16:46;;;;;;;18.90;14.38;;;;;;;9.45;94.45;98897.66;5033405;28;20045;-89
2021/11/03 01:19:13;;;;;;;20.92;14.40;;;;;;;9.73;93.82;98904.41;5032353;28;20056;-88
2021/11/03 01:21:41;;;;;;;28.70;19.25;;;;;;;9.37;96.91;98899.91;5033112;28;20419;-89
2021/11/03 01:24:08;;;;;;;25.20;22.38;;;;;;;9.86;93.94;98901.84;5032928;28;20080;-88
2021/11/03 01:26:35;;;;;;;23.38;19.90;;;;;;;9.88;93.18;98895.56;5031495;28;20053;-87
2021/11/03 01:29:04;;;;;;;26.58;22.75;;;;;;;9.90;93.22;98891.09;5031510;28;20398;-88
2021/11/03 01:31:31;;;;;;;45.15;26.63;;;;;;;9.68;93.32;98878.72;5032169;28;20053;-88
2021/11/03 01:33:59;;;;;;;27.30;24.38;;;;;;;9.86;92.42;98878.41;5033341;28;20037;-88
2021/11/03 01:36:26;;;;;;;32.58;25.55;;;;;;;9.99;90.68;98884.41;5031196;28;20038;-88
2021/11/03 01:38:53;;;;;;;31.75;27.70;;;;;;;9.53;94.07;98897.94;5042022;28;20061;-89
2021/11/03 01:41:22;;;;;;;31.05;25.75;;;;;;;9.57;95.00;98890.78;5054934;28;20065;-90
2021/11/03 01:44:00;;;;;;;29.67;26.45;;;;;;;9.30;96.61;98904.69;5051848;28;20071;-88
2021/11/03 01:46:28;;;;;;;35.85;27.38;;;;;;;9.30;97.39;98896.88;5040572;28;20041;-89
2021/11/03 01:49:23;;;;;;;35.63;28.60;;;;;;;9.36;96.74;98887.84;5032844;28;20053;-89
2021/11/03 01:52:11;;;;;;;34.78;25.58;;;;;;;9.53;95.49;98895.34;5031129;28;20045;-88
2021/11/03 01:54:50;;;;;;;32.75;26.55;;;;;;;9.28;97.52;98885.78;5031651;28;20037;-89
2021/11/03 01:57:24;;;;;;;31.80;25.23;;;;;;;9.47;96.25;98874.97;5030482;28;20056;-90
2021/11/03 02:00:02;;;;;;;46.17;25.63;;;;;;;9.77;94.24;98876.44;5031024;28;20041;-89
2021/11/03 02:02:41;;;;;;;27.20;22.58;;;;;;;9.45;95.32;98888.06;5032875;28;20099;-89
2021/11/03 02:05:13;;;;;;;31.85;26.13;;;;;;;9.48;96.39;98879.25;5031492;28;20054;-89
2021/11/03 02:07:42;;;;;;;27.33;24.35;;;;;;;9.43;96.50;98871.75;5031356;28;20052;-90
2021/11/03 02:10:11;;;;;;;28.30;25.30;;;;;;;9.50;96.14;98866.13;5031038;28;20077;-89
2021/11/03 02:12:39;;;;;;;32.47;26.10;;;;;;;9.28;98.54;98867.56;5031281;28;20051;-88
2021/11/03 02:15:09;;;;;;;33.25;26.52;;;;;;;9.65;97.01;98873.72;5030579;28;20061;-90
2021/11/03 02:17:36;;;;;;;31.65;27.30;;;;;;;9.51;96.90;98876.41;5032834;28;20091;-90
2021/11/03 02:20:09;;;;;;;33.95;27.98;;;;;;;9.77;95.11;98861.66;5031391;28;20053;-90
2021/11/03 02:22:45;;;;;;;37.65;27.48;;;;;;;9.67;95.98;98850.19;5031395;28;20041;-90
2021/11/03 02:25:16;;;;;;;33.15;27.77;;;;;;;9.50;96.73;98847.91;5025940;28;20058;-90
2021/11/03 02:27:47;;;;;;;34.92;28.55;;;;;;;9.45;97.95;98846.47;5018448;28;20046;-90
2021/11/03 02:30:18;;;;;;;34.28;27.42;;;;;;;9.22;99.81;98838.53;5031977;28;20136;-90
2021/11/03 02:32:51;;;;;;;41.05;30.17;;;;;;;9.35;98.85;98837.59;5032874;28;20136;-90
2021/11/03 02:35:18;;;;;;;34.25;27.80;;;;;;;9.78;96.33;98834.69;5025354;28;20659;-89
2021/11/03 02:37:52;;;;;;;26.27;23.38;;;;;;;9.85;94.49;98829.88;5027595;28;20119;-89
2021/11/03 02:40:37;;;;;;;37.33;29.27;;;;;;;9.68;95.13;98837.06;5030481;28;20148;-89
2021/11/03 02:43:10;;;;;;;36.95;31.30;;;;;;;9.85;95.23;98833.31;5041065;28;20056;-89
2021/11/03 02:45:54;;;;;;;38.50;34.42;;;;;;;9.64;96.42;98824.38;5032022;28;20042;-90
2021/11/03 02:48:24;;;;;;;36.70;32.35;;;;;;;9.48;98.02;98815.97;5043913;28;20073;-88
2021/11/03 02:51:09;;;;;;;46.45;30.92;;;;;;;9.32;99.21;98809.22;5025890;28;20495;-89
2021/11/03 02:53:42;;;;;;;37.28;28.50;;;;;;;9.48;98.26;98814.22;5030023;28;20049;-90
2021/11/03 02:56:09;;;;;;;36.10;26.95;;;;;;;9.62;97.75;98818.47;5030835;28;20045;-90
2021/11/03 02:58:37;;;;;;;25.35;20.48;;;;;;;9.64;96.49;98820.03;5013883;28;20046;-89
2021/11/03 03:01:35;;;;;;;27.08;17.95;;;;;;;9.67;96.91;98818.97;5030375;28;20041;-89
2021/11/03 03:04:08;;;;;;;28.45;17.83;;;;;;;9.78;95.82;98808.66;5029361;28;20067;-89
2021/11/03 03:06:36;;;;;;;29.05;18.00;;;;;;;9.89;95.01;98821.75;5030979;28;20042;-90
2021/11/03 03:09:05;;;;;;;28.10;16.27;;;;;;;9.78;95.43;98824.28;5021680;28;20063;-89
2021/11/03 03:11:35;;;;;;;20.63;14.90;;;;;;;9.83;95.38;98821.34;5038863;28;20124;-88
2021/11/03 03:14:05;;;;;;;31.20;25.45;;;;;;;9.72;96.00;98827.31;5037844;28;20491;-89
2021/11/03 03:16:33;;;;;;;24.48;20.98;;;;;;;9.70;96.55;98821.38;5033731;28;20124;-89
2021/11/03 03:19:01;;;;;;;28.55;24.77;;;;;;;9.77;96.92;98822.59;5033468;28;20045;-89
2021/11/03 03:21:30;;;;;;;28.10;24.52;;;;;;;9.45;99.49;98815.25;5033330;28;20092;-89
2021/11/03 03:24:03;;;;;;;28.23;24.15;;;;;;;9.29;100.00;98821.59;5033570;28;20088;-89
2021/11/03 03:26:30;;;;;;;30.70;26.27;;;;;;;9.69;98.18;98823.16;5033620;28;20127;-89
2021/11/03 03:29:00;;;;;;;21.45;17.55;;;;;;;9.67;97.98;98827.59;5033346;28;20041;-87
2021/11/03 03:31:28;;;;;;;22.55;18.90;;;;;;;9.72;97.35;98827.31;5033385;28;20053;-88
2021/11/03 03:33:59;;;;;;;31.83;23.65;;;;;;;9.83;96.99;98835.19;5033367;28;20037;-89
2021/11/03 03:36:27;;;;;;;26.38;23.50;;;;;;;9.39;99.78;98815.66;5033091;28;20048;-88
2021/11/03 03:38:55;;;;;;;29.27;22.75;;;;;;;9.42;100.00;98820.63;5034829;28;20403;-90
2021/11/03 03:41:24;;;;;;;29.27;24.52;;;;;;;9.71;97.79;98815.22;5033306;28;20037;-88
2021/11/03 03:43:51;;;;;;;28.48;25.45;;;;;;;9.58;98.69;98814.41;5033452;28;20045;-89
2021/11/03 03:46:19;;;;;;;26.77;22.52;;;;;;;9.58;99.45;98804.00;5034573;28;20049;-88
2021/11/03 03:48:45;;;;;;;23.83;21.23;;;;;;;9.44;100.00;98808.38;5034848;28;20041;-88
2021/11/03 03:51:13;;;;;;;26.15;20.67;;;;;;;9.17;100.00;98805.88;5032853;28;20060;-88
2021/11/03 03:53:42;;;;;;;29.40;21.67;;;;;;;9.11;100.00;98802.88;5032885;28;20045;-88
2021/11/03 03:56:15;;;;;;;23.98;16.67;;;;;;;9.50;100.00;98795.91;5032933;28;20488;-89
2021/11/03 03:58:42;;;;;;;27.40;20.85;;;;;;;9.38;100.00;98785.41;5032704;28;20053;-87
2021/11/03 04:01:13;;;;;;;29.45;22.08;;;;;;;9.14;100.00;98792.25;5033056;28;20038;-87
2021/11/03 04:03:43;;;;;;;28.92;22.17;;;;;;;9.13;100.00;98793.19;5032621;28;20404;-87
2021/11/03 04:06:11;;;;;;;25.35;22.50;;;;;;;9.15;100.00;98792.13;5016748;28;20063;-84
2021/11/03 04:08:38;;;;;;;24.52;22.00;;;;;;;9.27;100.00;98787.91;5032465;28;20217;-87
2021/11/03 04:11:05;;;;;;;23.25;20.67;;;;;;;9.24;100.00;98782.88;5034203;28;20120;-87
2021/11/03 04:13:34;;;;;;;30.42;21.58;;;;;;;9.08;100.00;98780.50;5017785;28;20495;-87
2021/11/03 04:16:02;;;;;;;19.17;16.50;;;;;;;8.99;100.00;98772.47;5052528;28;20072;-87
2021/11/03 04:18:29;;;;;;;20.95;13.88;;;;;;;9.03;100.00;98771.34;5044378;28;20488;-87
2021/11/03 04:20:57;;;;;;;17.40;12.85;;;;;;;9.14;100.00;98768.84;5031997;28;20041;-88
2021/11/03 04:23:24;;;;;;;17.70;13.88;;;;;;;9.30;100.00;98766.03;5033400;28;20097;-87
2021/11/03 04:25:52;;;;;;;15.32;13.25;;;;;;;9.13;100.00;98777.59;5033855;28;20091;-87
2021/11/03 04:28:19;;;;;;;19.27;13.30;;;;;;;9.23;100.00;98765.63;5042850;28;20033;-86
2021/11/03 04:30:47;;;;;;;17.52;13.73;;;;;;;9.13;100.00;98768.03;5048017;28;20065;-86
2021/11/03 04:33:16;;;;;;;18.58;14.35;;;;;;;9.06;100.00;98776.34;5052055;28;20056;-86
2021/11/03 04:35:43;;;;;;;28.25;14.57;;;;;;;8.96;100.00;98767.50;5037687;28;20400;-89
2021/11/03 04:38:10;;;;;;;20.67;14.63;;;;;;;8.92;100.00;98770.28;5036037;28;20043;-88
2021/11/03 04:40:39;;;;;;;20.55;15.95;;;;;;;8.93;100.00;98763.31;5031999;28;20057;-88
2021/11/03 04:43:07;;;;;;;24.55;17.00;;;;;;;9.16;100.00;98751.38;5032176;28;20499;-88
2021/11/03 04:45:34;;;;;;;20.55;15.90;;;;;;;9.12;100.00;98768.97;5034537;28;20053;-88
2021/11/03 04:48:04;;;;;;;20.45;15.40;;;;;;;9.26;100.00;98786.22;5031035;28;20045;-88
2021/11/03 04:50:32;;;;;;;17.45;14.73;;;;;;;9.44;100.00;98791.94;5031487;28;20049;-88
2021/11/03 04:53:00;;;;;;;26.23;15.55;;;;;;;9.09;100.00;98774.34;5031882;28;20115;-88
2021/11/03 04:55:32;;;;;;;15.48;13.70;;;;;;;8.84;100.00;98777.78;5032564;28;20128;-87
2021/11/03 04:57:59;;;;;;;17.38;15.32;;;;;;;9.03;100.00;98766.13;5031125;28;20135;-86
2021/11/03 05:00:29;;;;;;;20.67;17.88;;;;;;;8.77;100.00;98750.50;5031674;28;20045;-85
2021/11/03 05:03:00;;;;;;;18.77;16.83;;;;;;;9.02;100.00;98765.31;5045653;28;20041;-84
2021/11/03 05:05:27;;;;;;;20.80;15.13;;;;;;;9.17;100.00;98759.09;5040119;28;20089;-83
2021/11/03 05:07:56;;;;;;;17.85;15.15;;;;;;;9.18;100.00;98744.31;5031178;28;20045;-83
2021/11/03 05:10:23;;;;;;;22.50;14.68;;;;;;;9.13;100.00;98759.38;5031492;28;20510;-83
2021/11/03 05:12:53;;;;;;;15.30;13.52;;;;;;;8.59;100.00;98780.31;5030966;28;20045;-83
2021/11/03 05:15:20;;;;;;;20.92;15.02;;;;;;;8.49;100.00;98779.25;5033064;28;20117;-84
2021/11/03 05:17:48;;;;;;;17.90;14.77;;;;;;;8.79;100.00;98774.66;5031147;28;20044;-84
2021/11/03 05:20:18;;;;;;;23.10;15.20;;;;;;;8.63;100.00;98764.44;5031395;28;20091;-88
2021/11/03 05:22:47;;;;;;;20.02;16.23;;;;;;;8.65;100.00;98761.72;5042719;28;20099;-88
2021/11/03 05:25:21;;;;;;;28.95;18.92;;;;;;;8.72;100.00;98756.94;5032490;28;20554;-89
2021/11/03 05:27:48;;;;;;;19.80;15.80;;;;;;;8.89;100.00;98754.91;5033730;28;20447;-89
2021/11/03 05:30:15;;;;;;;24.05;16.38;;;;;;;8.51;100.00;98743.59;5031966;28;20056;-89
2021/11/03 05:32:42;;;;;;;19.35;16.48;;;;;;;8.52;100.00;98734.88;5032537;28;20038;-89
2021/11/03 05:35:09;;;;;;;21.77;17.63;;;;;;;8.67;100.00;98744.25;5032671;28;20041;-89
2021/11/03 05:37:36;;;;;;;21.55;13.82;;;;;;;8.98;100.00;98744.81;5032536;28;20100;-89
2021/11/03 05:40:06;;;;;;;18.85;13.52;;;;;;;9.07;100.00;98741.63;5032855;28;20045;-89
2021/11/03 05:42:33;;;;;;;18.70;13.68;;;;;;;8.82;100.00;98747.63;5045599;28;20041;-89
2021/11/03 05:44:59;;;;;;;29.50;19.30;;;;;;;8.57;100.00;98763.97;5052307;28;20067;-89
2021/11/03 05:47:28;;;;;;;25.17;17.23;;;;;;;8.36;100.00;98761.88;5044004;28;20040;-88
2021/11/03 05:49:57;;;;;;;24.75;16.98;;;;;;;8.43;100.00;98770.09;5052640;28;20557;-89
2021/11/03 05:52:25;;;;;;;22.48;16.85;;;;;;;8.24;100.00;98764.38;5050976;28;20101;-88
2021/11/03 05:54:52;;;;;;;27.35;19.45;;;;;;;8.45;100.00;98764.78;5051169;28;20048;-89
2021/11/03 05:57:30;;;;;;;19.98;13.05;;;;;;;8.35;100.00;98764.50;5052417;28;20150;-89
2021/11/03 05:59:58;;;;;;;14.15;11.10;;;;;;;8.63;100.00;98748.84;5032516;28;20477;-88
2021/11/03 06:02:25;;;;;;;14.27;11.63;;;;;;;8.55;100.00;98750.28;5032325;28;20050;-87
2021/11/03 06:04:52;;;;;;;16.10;11.75;;;;;;;8.49;100.00;98753.28;5032352;28;20063;-89
2021/11/03 06:07:22;;;;;;;18.25;11.27;;;;;;;8.53;100.00;98742.59;5028582;28;20504;-86
2021/11/03 06:09:52;;;;;;;20.17;12.77;;;;;;;8.33;100.00;98746.44;5024098;28;20033;-88
2021/11/03 06:12:19;;;;;;;16.65;12.95;;;;;;;8.43;100.00;98745.88;5026623;28;20045;-90
2021/11/03 06:14:46;;;;;;;25.13;13.45;;;;;;;8.68;100.00;98743.31;5026419;28;20041;-88
2021/11/03 06:17:12;;;;;;;21.55;12.63;;;;;;;8.29;100.00;98760.53;5034155;28;20095;-88
2021/11/03 06:19:39;;;;;;;43.60;12.95;;;;;;;8.47;100.00;98749.91;5032588;28;20050;-87
2021/11/03 06:22:14;;;;;;;29.65;14.15;;;;;;;8.72;100.00;98749.97;5028310;28;20046;-89
2021/11/03 06:24:43;;;;;;;22.15;13.35;;;;;;;8.75;100.00;98756.75;5030614;28;20029;-87
2021/11/03 06:27:10;;;;;;;35.63;12.60;;;;;;;8.65;100.00;98756.53;5050476;28;20042;-87
2021/11/03 06:29:37;;;;;;;15.48;13.60;;;;;;;8.42;100.00;98749.41;5045397;28;20049;-89
2021/11/03 06:32:04;;;;;;;21.95;14.93;;;;;;;8.33;100.00;98738.66;5024523;28;20386;-90
2021/11/03 06:34:31;;;;;;;21.83;15.23;;;;;;;8.70;100.00;98731.09;5021627;28;20042;-89
2021/11/03 06:36:58;;;;;;;28.40;17.67;;;;;;;8.21;100.00;98730.84;5029272;28;20037;-90
2021/11/03 06:39:24;;;;;;;28.05;18.90;;;;;;;8.47;100.00;98731.75;5028205;28;20084;-91
2021/11/03 06:41:51;;;;;;;29.35;19.58;;;;;;;8.72;100.00;98733.56;5031089;28;20045;-91
2021/11/03 06:44:19;;;;;;;33.33;20.60;;;;;;;8.57;100.00;98731.03;5027872;28;20088;-88
2021/11/03 06:46:48;;;;;;;37.28;24.52;;;;;;;8.53;100.00;98723.56;5035877;28;20115;-87
2021/11/03 06:49:15;;;;;;;40.08;23.88;;;;;;;8.53;100.00;98736.56;5033692;28;20042;-83
2021/11/03 06:51:42;;;;;;;35.33;23.95;;;;;;;8.53;100.00;98731.38;5032170;28;20100;-86
2021/11/03 06:54:09;;;;;;;45.45;26.23;;;;;;;8.69;100.00;98733.78;5041757;28;20080;-88
2021/11/03 06:56:37;;;;;;;45.45;27.42;;;;;;;8.92;100.00;98728.72;5032532;28;20045;-90
2021/11/03 06:59:04;;;;;;;37.15;27.55;;;;;;;8.70;100.00;98727.66;5032811;28;20042;-87
2021/11/03 07:01:31;;;;;;;36.22;26.30;;;;;;;8.98;100.00;98737.03;5032571;28;20038;-85
2021/11/03 07:03:59;;;;;;;47.70;28.77;;;;;;;8.85;100.00;98740.47;5031191;28;20045;-86
2021/11/03 07:06:26;;;;;;;56.22;34.45;;;;;;;9.01;100.00;98744.63;5029590;28;20033;-86
2021/11/03 07:08:54;;;;;;;58.42;32.22;;;;;;;8.90;100.00;98733.19;5030681;28;20073;-85
2021/11/03 07:11:23;;;;;;;50.92;33.10;;;;;;;8.83;100.00;98742.31;5029153;28;20522;-85
2021/11/03 07:13:51;;;;;;;47.75;32.70;;;;;;;8.77;100.00;98755.72;5030999;28;20041;-89
2021/11/03 07:16:18;;;;;;;48.30;31.45;;;;;;;9.08;100.00;98762.28;5028180;28;20034;-87
2021/11/03 07:18:45;;;;;;;45.15;32.53;;;;;;;9.37;100.00;98759.47;5035529;28;20557;-87
2021/11/03 07:21:11;;;;;;;44.92;30.63;;;;;;;9.46;100.00;98753.66;5034662;28;20103;-86
2021/11/03 07:23:41;;;;;;;40.25;28.17;;;;;;;9.26;100.00;98756.78;5025192;28;20052;-86
2021/11/03 07:26:08;;;;;;;39.25;26.85;;;;;;;9.26;100.00;98754.19;5024825;28;20116;-86
2021/11/03 07:28:36;;;;;;;29.75;23.27;;;;;;;9.39;100.00;98763.66;5035177;28;20038;-87
2021/11/03 07:31:04;;;;;;;29.63;20.67;;;;;;;9.30;100.00;98753.88;5041368;28;20057;-85
2021/11/03 07:33:32;;;;;;;27.98;19.25;;;;;;;9.59;100.00;98764.88;5037410;28;20121;-86
2021/11/03 07:36:01;;;;;;;22.67;16.33;;;;;;;9.64;100.00;98760.19;5046316;28;20048;-86
2021/11/03 07:38:28;;;;;;;24.50;16.67;;;;;;;9.76;100.00;98755.06;5034469;28;20447;-86
2021/11/03 07:40:57;;;;;;;19.98;16.15;;;;;;;9.79;100.00;98745.25;5048469;28;20040;-86
2021/11/03 07:43:26;;;;;;;17.92;14.98;;;;;;;9.84;100.00;98755.34;5043098;28;20045;-85
2021/11/03 07:45:55;;;;;;;21.50;17.83;;;;;;;9.64;100.00;98751.53;5027123;28;20046;-85
2021/11/03 07:48:25;;;;;;;19.70;16.90;;;;;;;9.61;100.00;98752.59;5038181;28;20045;-85
2021/11/03 07:50:57;;;;;;;21.23;16.40;;;;;;;9.87;100.00;98753.38;5019893;28;20044;-83
2021/11/03 07:53:25;;;;;;;17.02;14.50;;;;;;;9.66;100.00;98755.69;5024103;28;20045;-86
2021/11/03 07:55:58;;;;;;;24.27;19.83;;;;;;;9.81;100.00;98746.00;5035965;28;20485;-86
2021/11/03 07:58:28;;;;;;;22.92;18.38;;;;;;;9.92;100.00;98737.44;5033355;28;20443;-87
2021/11/03 08:00:56;;;;;;;20.88;16.55;;;;;;;9.80;100.00;98736.53;5045258;28;20045;-85
2021/11/03 08:03:26;;;;;;;21.85;17.58;;;;;;;9.83;100.00;98741.50;5042837;28;20437;-84
2021/11/03 08:05:54;;;;;;;26.60;18.13;;;;;;;9.84;100.00;98742.34;5033320;28;20095;-84
2021/11/03 08:08:24;;;;;;;22.33;17.90;;;;;;;9.76;100.00;98734.25;5034580;28;20107;-84
2021/11/03 08:10:55;;;;;;;29.00;21.13;;;;;;;9.92;100.00;98719.19;5037920;28;20058;-87
2021/11/03 08:13:26;;;;;;;29.73;25.15;;;;;;;9.78;100.00;98708.94;5041498;28;20052;-85
2021/11/03 08:15:55;;;;;;;35.25;27.08;;;;;;;9.71;100.00;98721.56;5042424;28;20096;-87
2021/11/03 08:18:27;;;;;;;36.80;26.80;;;;;;;9.74;100.00;98721.31;5034364;28;20412;-87
2021/11/03 08:20:55;;;;;;;37.53;27.92;;;;;;;9.97;100.00;98724.91;5033264;28;20052;-86
2021/11/03 08:23:22;;;;;;;40.70;31.38;;;;;;;10.06;100.00;98723.41;5032860;28;20030;-85
2021/11/03 08:25:49;;;;;;;34.95;25.63;;;;;;;10.07;100.00;98714.69;5038990;28;20091;-85
2021/11/03 08:28:16;;;;;;;28.55;19.75;;;;;;;10.20;100.00;98715.44;5036467;28;20446;-88
2021/11/03 08:30:45;;;;;;;20.23;18.08;;;;;;;9.97;100.00;98711.91;5036321;28;20083;-86
2021/11/03 08:33:17;;;;;;;18.58;15.02;;;;;;;9.97;100.00;98717.94;5036298;28;20151;-86
2021/11/03 08:35:50;;;;;;;24.52;20.20;;;;;;;10.31;100.00;98720.72;5032401;28;20055;-85
2021/11/03 08:38:21;;;;;;;25.90;18.40;;;;;;;10.14;100.00;98726.31;5043314;28;20403;-88
2021/11/03 08:40:49;;;;;;;23.75;17.50;;;;;;;10.33;100.00;98718.00;5043535;28;20056;-88
2021/11/03 08:43:20;;;;;;;20.33;17.33;;;;;;;10.20;100.00;98710.22;5033296;28;20048;-84
2021/11/03 08:45:46;;;;;;;20.58;14.32;;;;;;;10.44;100.00;98710.25;5041404;28;20045;-85
2021/11/03 08:48:13;;;;;;;22.17;13.55;;;;;;;10.64;100.00;98703.53;5033451;28;20049;-86
2021/11/03 08:50:42;;;;;;;22.67;16.00;;;;;;;10.73;100.00;98692.44;5034998;28;20067;-87
2021/11/03 08:53:10;;;;;;;16.52;14.23;;;;;;;10.69;100.00;98677.97;5041628;28;20087;-88
2021/11/03 08:55:38;;;;;;;27.08;17.75;;;;;;;10.65;100.00;98676.53;5026825;28;20041;-87
2021/11/03 08:58:09;;;;;;;29.27;21.77;;;;;;;10.81;100.00;98687.47;5037338;28;20431;-85
2021/11/03 09:00:38;;;;;;;34.05;24.10;;;;;;;10.61;100.00;98699.41;5037066;28;20487;-86
2021/11/03 09:03:06;;;;;;;33.88;26.20;;;;;;;10.46;100.00;98703.97;5036828;28;20045;-88
2021/11/03 09:05:33;;;;;;;36.35;27.08;;;;;;;10.55;100.00;98699.03;5038196;28;20053;-86
2021/11/03 09:08:03;;;;;;;33.10;26.05;;;;;;;10.64;100.00;98680.09;5043538;28;20033;-88
2021/11/03 09:10:34;;;;;;;40.30;28.35;;;;;;;10.65;100.00;98671.31;5037621;28;20049;-88
2021/11/03 09:13:01;;;;;;;34.80;29.27;;;;;;;10.82;100.00;98686.53;5048616;28;20393;-86
2021/11/03 09:15:29;;;;;;;43.35;30.75;;;;;;;10.61;100.00;98677.72;5036436;28;20040;-83
2021/11/03 09:17:56;;;;;;;40.40;30.15;;;;;;;10.57;100.00;98669.31;5041785;28;20033;-81
2021/11/03 09:20:24;;;;;;;39.83;28.70;;;;;;;10.71;100.00;98670.88;5023876;28;20045;-81
2021/11/03 09:22:51;;;;;;;34.15;25.15;;;;;;;10.69;100.00;98668.38;5036250;28;20068;-81
2021/11/03 09:25:22;;;;;;;33.97;23.75;;;;;;;10.57;100.00;98671.06;5030403;28;20103;-83
2021/11/03 09:27:51;;;;;;;25.33;20.92;;;;;;;10.37;100.00;98683.81;5026060;28;20061;-82
2021/11/03 09:30:21;;;;;;;29.15;19.33;;;;;;;10.44;100.00;98681.59;5037201;28;20045;-85
2021/11/03 09:32:51;;;;;;;25.15;19.67;;;;;;;10.46;100.00;98683.13;5027526;28;20525;-84
2021/11/03 09:35:25;;;;;;;27.42;21.60;;;;;;;10.47;100.00;98679.56;5030082;28;20045;-85
2021/11/03 09:37:52;;;;;;;28.48;22.35;;;;;;;10.62;100.00;98682.00;5029480;28;20045;-85
2021/11/03 09:40:31;;;;;;;35.33;26.48;;;;;;;10.39;100.00;98676.72;5025124;28;20045;-85
2021/11/03 09:42:59;;;;;;;39.05;26.20;;;;;;;10.41;100.00;98679.22;5027348;28;20042;-85
2021/11/03 09:45:32;;;;;;;35.90;25.77;;;;;;;10.58;100.00;98670.94;5028184;28;20082;-83
2021/11/03 09:48:15;;;;;;;36.92;25.08;;;;;;;10.62;100.00;98675.00;5022466;28;20068;-87
2021/11/03 09:50:45;;;;;;;36.50;26.20;;;;;;;10.58;100.00;98670.94;5025022;28;20045;-85
2021/11/03 09:53:22;;;;;;;34.65;27.73;;;;;;;10.50;100.00;98657.69;5028406;28;20111;-84
2021/11/03 09:55:49;;;;;;;34.58;25.25;;;;;;;10.49;100.00;98666.41;5039564;28;20048;-83
2021/11/03 09:58:25;;;;;;;38.45;26.13;;;;;;;10.46;100.00;98664.91;5027650;28;20046;-83
2021/11/03 10:00:59;;;;;;;37.63;27.52;;;;;;;10.53;100.00;98646.19;5024157;28;20050;-85
2021/11/03 10:03:44;;;;;;;35.08;24.98;;;;;;;10.36;100.00;98648.28;5025782;28;20490;-83
2021/11/03 10:06:14;;;;;;;;;;;;;;;10.49;100.00;98646.44;5024363;28;20103;-84
2021/11/03 10:08:44;;;;;;;35.95;24.77;;;;;;;10.57;100.00;98642.41;5028273;28;20335;-84
2021/11/03 10:11:22;;;;;;;35.78;26.52;;;;;;;10.62;100.00;98640.28;5027902;28;20049;-87
2021/11/03 10:13:58;;;;;;;38.05;25.83;;;;;;;10.52;100.00;98647.16;5021837;28;20042;-86
2021/11/03 10:16:30;;;;;;;39.00;26.10;;;;;;;10.42;100.00;98640.00;5029108;28;20090;-82
2021/11/03 10:19:19;;;;;;;33.10;25.60;;;;;;;10.44;100.00;98638.13;5026697;28;20041;-84
2021/11/03 10:21:57;;;;;;;48.80;30.23;;;;;;;10.53;100.00;98638.38;5029972;28;20380;-82
2021/11/03 10:24:39;;;;;;;40.13;26.23;;;;;;;10.47;100.00;98637.06;5030469;28;20399;-84
2021/11/03 10:27:20;;;;;;;40.70;28.38;;;;;;;10.60;100.00;98631.75;5032528;28;20037;-82
2021/11/03 10:30:16;;;;;;;35.28;26.75;;;;;;;10.59;100.00;98624.88;5026225;28;20484;-81
2021/11/03 10:32:44;;;;;;;40.72;27.10;;;;;;;10.46;100.00;98622.38;5032566;28;20120;-82
2021/11/03 10:35:23;;;;;;;41.90;28.55;;;;;;;10.53;100.00;98620.97;5031108;28;20053;-82
2021/11/03 10:38:00;;;;;;;36.33;26.40;;;;;;;10.60;100.00;98621.31;5032685;28;20049;-83
2021/11/03 10:40:43;;;;;;;39.03;26.67;;;;;;;10.61;100.00;98615.19;5027921;28;20041;-82
2021/11/03 10:43:42;;;;;;;36.20;24.40;;;;;;;10.48;100.00;98618.72;5030373;28;20044;-84
2021/11/03 10:46:26;;;;;;;29.15;22.63;;;;;;;10.46;100.00;98618.00;5029941;28;20050;-81
2021/11/03 10:49:08;;;;;;;34.20;22.33;;;;;;;10.46;100.00;98610.19;5034413;28;20049;-80
2021/11/03 10:51:41;;;;;;;31.20;22.60;;;;;;;10.44;100.00;98599.06;5038647;28;20045;-81
2021/11/03 10:54:21;;;;;;;25.35;20.20;;;;;;;10.64;100.00;98601.91;5034609;28;20045;-82
2021/11/03 10:57:03;;;;;;;29.30;20.52;;;;;;;10.60;100.00;98605.69;5026074;28;20033;-82
2021/11/03 10:59:31;;;;;;;24.08;19.50;;;;;;;10.59;100.00;98609.25;5032144;28;20045;-82
2021/11/03 11:02:19;;;;;;;28.15;20.50;;;;;;;10.54;100.00;98585.31;5037320;28;20103;-82
2021/11/03 11:04:47;;;;;;;26.02;20.13;;;;;;;10.65;100.00;98577.50;5053913;28;20037;-82
2021/11/03 11:07:20;;;;;;;28.08;20.85;;;;;;;10.64;100.00;98562.81;5044392;28;20107;-81
2021/11/03 11:09:57;;;;;;;28.20;19.83;;;;;;;10.65;100.00;98549.69;5029444;28;20095;-81
2021/11/03 11:12:29;;;;;;;24.83;17.83;;;;;;;10.85;100.00;98542.09;5033138;28;20092;-80
2021/11/03 11:15:02;;;;;;;22.38;18.63;;;;;;;10.89;100.00;98533.91;5028273;28;20068;-81
2021/11/03 11:17:44;;;;;;;24.67;21.17;;;;;;;10.90;100.00;98525.13;5031022;28;20042;-83
2021/11/03 11:20:23;;;;;;;25.48;18.90;;;;;;;10.97;100.00;98528.94;5026841;28;20327;-80
2021/11/03 11:23:02;;;;;;;21.35;17.80;;;;;;;10.75;100.00;98532.38;5027699;28;20092;-82
2021/11/03 11:25:43;;;;;;;27.27;19.52;;;;;;;10.74;100.00;98533.31;5031833;28;20046;-82
2021/11/03 11:28:27;;;;;;;23.38;19.65;;;;;;;10.82;100.00;98519.72;5024705;28;20507;-82
2021/11/03 11:31:07;;;;;;;20.98;18.20;;;;;;;10.80;100.00;98513.78;5028317;28;20494;-81
2021/11/03 11:33:43;;;;;;;23.33;19.30;;;;;;;10.73;100.00;98515.22;5034260;28;20039;-85